sensor_id;sensor_type;location;lat;lon;timestamp;temperature;humidity
20722;DHT22;10522;52.198;9.890;2023-04-21T00:02:21;6.80;99.90
20722;DHT22;10522;52.198;9.890;2023-04-21T00:04:47;6.80;99.90
20722;DHT22;10522;52.198;9.890;2023-04-21T00:07:14;6.80;99.90
20722;DHT22;10522;52.198;9.890;2023-04-21T00:09:40;6.80;99.90
20722;DHT22;10522;52.198;9.890;2023-04-21T00:12:06;6.80;99.90
20722;DHT22;10522;52.198;9.890;2023-04-21T00:14:32;6.80;99.90
20722;DHT22;10522;52.198;9.890;2023-04-21T00:16:58;6.90;99.90
20722;DHT22;10522;52.198;9.890;2023-04-21T00:19:24;6.90;99.90
20722;DHT22;10522;52.198;9.890;2023-04-21T00:21:50;7.00;99.90
20722;DHT22;10522;52.198;9.890;2023-04-21T00:24:16;7.00;99.90
20722;DHT22;10522;52.198;9.890;2023-04-21T00:26:41;7.10;99.90
20722;DHT22;10522;52.198;9.890;2023-04-21T00:29:07;7.20;99.90
20722;DHT22;10522;52.198;9.890;2023-04-21T00:31:32;7.20;99.90
20722;DHT22;10522;52.198;9.890;2023-04-21T00:33:58;7.20;99.90
20722;DHT22;10522;52.198;9.890;2023-04-21T00:36:23;7.20;99.90
20722;DHT22;10522;52.198;9.890;2023-04-21T00:38:52;7.20;99.90
20722;DHT22;10522;52.198;9.890;2023-04-21T00:41:18;7.20;99.90
20722;DHT22;10522;52.198;9.890;2023-04-21T00:44:03;7.10;99.90
20722;DHT22;10522;52.198;9.890;2023-04-21T00:46:29;7.10;99.90
20722;DHT22;10522;52.198;9.890;2023-04-21T00:48:56;7.20;99.90
20722;DHT22;10522;52.198;9.890;2023-04-21T00:51:22;7.20;99.90
20722;DHT22;10522;52.198;9.890;2023-04-21T00:53:48;7.20;99.90
20722;DHT22;10522;52.198;9.890;2023-04-21T00:56:15;7.20;99.90
20722;DHT22;10522;52.198;9.890;2023-04-21T00:58:41;7.20;99.90
20722;DHT22;10522;52.198;9.890;2023-04-21T01:01:08;7.30;99.90
20722;DHT22;10522;52.198;9.890;2023-04-21T01:03:34;7.30;99.90
20722;DHT22;10522;52.198;9.890;2023-04-21T01:06:00;7.20;99.90
20722;DHT22;10522;52.198;9.890;2023-04-21T01:08:26;7.10;99.90
20722;DHT22;10522;52.198;9.890;2023-04-21T01:10:52;7.10;99.90
20722;DHT22;10522;52.198;9.890;2023-04-21T01:13:21;7.10;99.90
20722;DHT22;10522;52.198;9.890;2023-04-21T01:15:47;7.10;99.90
20722;DHT22;10522;52.198;9.890;2023-04-21T01:18:12;7.00;99.90
20722;DHT22;10522;52.198;9.890;2023-04-21T01:20:39;7.00;99.90
20722;DHT22;10522;52.198;9.890;2023-04-21T01:23:04;7.00;99.90
20722;DHT22;10522;52.198;9.890;2023-04-21T01:25:30;7.00;99.90
20722;DHT22;10522;52.198;9.890;2023-04-21T01:27:55;7.00;99.90
20722;DHT22;10522;52.198;9.890;2023-04-21T01:30:21;7.00;99.90
20722;DHT22;10522;52.198;9.890;2023-04-21T01:32:47;7.00;99.90
20722;DHT22;10522;52.198;9.890;2023-04-21T01:35:12;6.90;99.90
20722;DHT22;10522;52.198;9.890;2023-04-21T01:37:38;7.00;99.90
20722;DHT22;10522;52.198;9.890;2023-04-21T01:40:05;6.90;99.90
20722;DHT22;10522;52.198;9.890;2023-04-21T01:42:36;7.00;99.90
20722;DHT22;10522;52.198;9.890;2023-04-21T01:45:02;7.00;99.90
20722;DHT22;10522;52.198;9.890;2023-04-21T01:47:28;7.00;99.90
20722;DHT22;10522;52.198;9.890;2023-04-21T01:49:54;7.00;99.90
20722;DHT22;10522;52.198;9.890;2023-04-21T01:52:19;7.00;99.90
20722;DHT22;10522;52.198;9.890;2023-04-21T01:54:45;7.00;99.90
20722;DHT22;10522;52.198;9.890;2023-04-21T01:57:11;7.10;99.90
20722;DHT22;10522;52.198;9.890;2023-04-21T01:59:37;7.10;99.90
20722;DHT22;10522;52.198;9.890;2023-04-21T02:02:03;7.20;99.90
20722;DHT22;10522;52.198;9.890;2023-04-21T02:04:28;7.20;99.90
20722;DHT22;10522;52.198;9.890;2023-04-21T02:06:54;7.20;99.90
20722;DHT22;10522;52.198;9.890;2023-04-21T02:09:19;7.30;99.90
20722;DHT22;10522;52.198;9.890;2023-04-21T02:11:45;7.30;99.90
20722;DHT22;10522;52.198;9.890;2023-04-21T02:14:10;7.30;99.90
20722;DHT22;10522;52.198;9.890;2023-04-21T02:16:36;7.40;99.90
20722;DHT22;10522;52.198;9.890;2023-04-21T02:19:02;7.40;99.90
20722;DHT22;10522;52.198;9.890;2023-04-21T02:21:27;7.40;99.90
20722;DHT22;10522;52.198;9.890;2023-04-21T02:23:53;7.50;99.90
20722;DHT22;10522;52.198;9.890;2023-04-21T02:26:19;7.50;99.90
20722;DHT22;10522;52.198;9.890;2023-04-21T02:28:45;7.60;99.90
20722;DHT22;10522;52.198;9.890;2023-04-21T02:31:11;7.50;99.90
20722;DHT22;10522;52.198;9.890;2023-04-21T02:33:37;7.50;99.90
20722;DHT22;10522;52.198;9.890;2023-04-21T02:36:03;7.50;99.90
20722;DHT22;10522;52.198;9.890;2023-04-21T02:38:29;7.50;99.90
20722;DHT22;10522;52.198;9.890;2023-04-21T02:40:56;7.50;99.90
20722;DHT22;10522;52.198;9.890;2023-04-21T02:43:21;7.50;99.90
20722;DHT22;10522;52.198;9.890;2023-04-21T02:45:47;7.40;99.90
20722;DHT22;10522;52.198;9.890;2023-04-21T02:48:12;7.40;99.90
20722;DHT22;10522;52.198;9.890;2023-04-21T02:50:38;7.30;99.90
20722;DHT22;10522;52.198;9.890;2023-04-21T02:53:04;7.30;99.90
20722;DHT22;10522;52.198;9.890;2023-04-21T02:55:30;7.30;99.90
20722;DHT22;10522;52.198;9.890;2023-04-21T02:57:56;7.20;99.90
20722;DHT22;10522;52.198;9.890;2023-04-21T03:00:21;7.10;99.90
20722;DHT22;10522;52.198;9.890;2023-04-21T03:02:47;7.10;99.90
20722;DHT22;10522;52.198;9.890;2023-04-21T03:05:13;7.10;99.90
20722;DHT22;10522;52.198;9.890;2023-04-21T03:07:38;7.00;99.90
20722;DHT22;10522;52.198;9.890;2023-04-21T03:10:05;6.80;99.90
20722;DHT22;10522;52.198;9.890;2023-04-21T03:12:31;6.70;99.90
20722;DHT22;10522;52.198;9.890;2023-04-21T03:14:56;6.50;99.90
20722;DHT22;10522;52.198;9.890;2023-04-21T03:17:23;6.50;99.90
20722;DHT22;10522;52.198;9.890;2023-04-21T03:19:48;6.40;99.90
20722;DHT22;10522;52.198;9.890;2023-04-21T03:22:14;6.30;99.90
20722;DHT22;10522;52.198;9.890;2023-04-21T03:24:40;6.20;99.90
20722;DHT22;10522;52.198;9.890;2023-04-21T03:27:05;6.10;99.90
20722;DHT22;10522;52.198;9.890;2023-04-21T03:29:31;6.00;99.90
20722;DHT22;10522;52.198;9.890;2023-04-21T03:31:56;6.00;99.90
20722;DHT22;10522;52.198;9.890;2023-04-21T03:34:22;5.90;99.90
20722;DHT22;10522;52.198;9.890;2023-04-21T03:36:48;5.80;99.90
20722;DHT22;10522;52.198;9.890;2023-04-21T03:39:13;5.90;99.90
20722;DHT22;10522;52.198;9.890;2023-04-21T03:41:39;5.90;99.90
20722;DHT22;10522;52.198;9.890;2023-04-21T03:44:05;5.80;99.90
20722;DHT22;10522;52.198;9.890;2023-04-21T03:46:30;5.90;99.90
20722;DHT22;10522;52.198;9.890;2023-04-21T03:48:56;5.90;99.90
20722;DHT22;10522;52.198;9.890;2023-04-21T03:51:22;6.00;99.90
20722;DHT22;10522;52.198;9.890;2023-04-21T03:53:47;5.80;99.90
20722;DHT22;10522;52.198;9.890;2023-04-21T03:56:13;5.70;99.90
20722;DHT22;10522;52.198;9.890;2023-04-21T03:58:38;5.60;99.90
20722;DHT22;10522;52.198;9.890;2023-04-21T04:01:05;5.60;99.90
20722;DHT22;10522;52.198;9.890;2023-04-21T04:03:31;5.50;99.90
20722;DHT22;10522;52.198;9.890;2023-04-21T04:05:57;5.50;99.90
20722;DHT22;10522;52.198;9.890;2023-04-21T04:08:23;5.60;99.90
20722;DHT22;10522;52.198;9.890;2023-04-21T04:10:48;5.60;99.90
20722;DHT22;10522;52.198;9.890;2023-04-21T04:13:14;5.60;99.90
20722;DHT22;10522;52.198;9.890;2023-04-21T04:15:40;5.60;99.90
20722;DHT22;10522;52.198;9.890;2023-04-21T04:18:05;5.60;99.90
20722;DHT22;10522;52.198;9.890;2023-04-21T04:20:31;5.70;99.90
20722;DHT22;10522;52.198;9.890;2023-04-21T04:22:56;5.80;99.90
20722;DHT22;10522;52.198;9.890;2023-04-21T04:25:22;6.00;99.90
20722;DHT22;10522;52.198;9.890;2023-04-21T04:27:48;6.10;99.90
20722;DHT22;10522;52.198;9.890;2023-04-21T04:30:15;6.00;99.90
20722;DHT22;10522;52.198;9.890;2023-04-21T04:32:41;6.00;99.90
20722;DHT22;10522;52.198;9.890;2023-04-21T04:35:07;5.90;99.90
20722;DHT22;10522;52.198;9.890;2023-04-21T04:37:35;5.90;99.90
20722;DHT22;10522;52.198;9.890;2023-04-21T04:40:01;5.90;99.90
20722;DHT22;10522;52.198;9.890;2023-04-21T04:42:30;6.00;99.90
20722;DHT22;10522;52.198;9.890;2023-04-21T04:44:57;6.10;99.90
20722;DHT22;10522;52.198;9.890;2023-04-21T04:47:26;6.30;99.90
20722;DHT22;10522;52.198;9.890;2023-04-21T04:49:51;6.50;99.90
20722;DHT22;10522;52.198;9.890;2023-04-21T04:52:17;6.60;99.90
20722;DHT22;10522;52.198;9.890;2023-04-21T04:54:42;6.70;99.90
20722;DHT22;10522;52.198;9.890;2023-04-21T04:57:08;6.70;99.90
20722;DHT22;10522;52.198;9.890;2023-04-21T04:59:33;6.70;99.90
20722;DHT22;10522;52.198;9.890;2023-04-21T05:02:01;6.70;99.90
20722;DHT22;10522;52.198;9.890;2023-04-21T05:04:27;6.60;99.90
20722;DHT22;10522;52.198;9.890;2023-04-21T05:06:52;6.70;99.90
20722;DHT22;10522;52.198;9.890;2023-04-21T05:09:18;6.70;99.90
20722;DHT22;10522;52.198;9.890;2023-04-21T05:11:44;6.80;99.90
20722;DHT22;10522;52.198;9.890;2023-04-21T05:14:09;6.70;99.90
20722;DHT22;10522;52.198;9.890;2023-04-21T05:16:35;6.70;99.90
20722;DHT22;10522;52.198;9.890;2023-04-21T05:19:01;6.70;99.90
20722;DHT22;10522;52.198;9.890;2023-04-21T05:21:27;6.70;99.90
20722;DHT22;10522;52.198;9.890;2023-04-21T05:23:54;6.80;99.90
20722;DHT22;10522;52.198;9.890;2023-04-21T05:26:20;6.80;99.90
20722;DHT22;10522;52.198;9.890;2023-04-21T05:28:46;6.80;99.90
20722;DHT22;10522;52.198;9.890;2023-04-21T05:31:11;6.80;99.90
20722;DHT22;10522;52.198;9.890;2023-04-21T05:33:37;6.90;99.90
20722;DHT22;10522;52.198;9.890;2023-04-21T05:36:06;6.90;99.90
20722;DHT22;10522;52.198;9.890;2023-04-21T05:38:33;6.90;99.90
20722;DHT22;10522;52.198;9.890;2023-04-21T05:40:59;7.00;99.90
20722;DHT22;10522;52.198;9.890;2023-04-21T05:43:24;7.10;99.90
20722;DHT22;10522;52.198;9.890;2023-04-21T05:45:50;7.20;99.90
20722;DHT22;10522;52.198;9.890;2023-04-21T05:48:15;7.50;99.90
20722;DHT22;10522;52.198;9.890;2023-04-21T05:50:41;7.70;99.90
20722;DHT22;10522;52.198;9.890;2023-04-21T05:53:07;7.90;99.90
20722;DHT22;10522;52.198;9.890;2023-04-21T05:55:36;8.10;99.90
20722;DHT22;10522;52.198;9.890;2023-04-21T05:58:02;8.30;99.90
20722;DHT22;10522;52.198;9.890;2023-04-21T06:00:28;8.40;99.90
20722;DHT22;10522;52.198;9.890;2023-04-21T06:02:54;8.50;99.90
20722;DHT22;10522;52.198;9.890;2023-04-21T06:05:20;8.50;99.90
20722;DHT22;10522;52.198;9.890;2023-04-21T06:07:46;8.60;99.90
20722;DHT22;10522;52.198;9.890;2023-04-21T06:10:13;8.60;99.90
20722;DHT22;10522;52.198;9.890;2023-04-21T06:12:38;8.80;99.90
20722;DHT22;10522;52.198;9.890;2023-04-21T06:15:04;8.90;99.90
20722;DHT22;10522;52.198;9.890;2023-04-21T06:17:31;8.90;99.90
20722;DHT22;10522;52.198;9.890;2023-04-21T06:19:56;9.00;99.90
20722;DHT22;10522;52.198;9.890;2023-04-21T06:22:22;9.10;99.90
20722;DHT22;10522;52.198;9.890;2023-04-21T06:24:48;9.20;99.90
20722;DHT22;10522;52.198;9.890;2023-04-21T06:27:14;9.20;99.90
20722;DHT22;10522;52.198;9.890;2023-04-21T06:29:40;9.30;99.90
20722;DHT22;10522;52.198;9.890;2023-04-21T06:32:09;9.40;99.90
20722;DHT22;10522;52.198;9.890;2023-04-21T06:34:35;9.40;99.90
20722;DHT22;10522;52.198;9.890;2023-04-21T06:37:01;9.60;99.90
20722;DHT22;10522;52.198;9.890;2023-04-21T06:39:27;9.60;99.90
20722;DHT22;10522;52.198;9.890;2023-04-21T06:41:53;9.60;99.90
20722;DHT22;10522;52.198;9.890;2023-04-21T06:44:18;9.80;99.90
20722;DHT22;10522;52.198;9.890;2023-04-21T06:46:44;9.90;99.90
20722;DHT22;10522;52.198;9.890;2023-04-21T06:49:10;10.00;99.90
20722;DHT22;10522;52.198;9.890;2023-04-21T06:51:36;10.10;99.90
20722;DHT22;10522;52.198;9.890;2023-04-21T06:54:02;10.20;99.90
20722;DHT22;10522;52.198;9.890;2023-04-21T06:56:28;10.30;99.90
20722;DHT22;10522;52.198;9.890;2023-04-21T06:58:54;10.40;99.90
20722;DHT22;10522;52.198;9.890;2023-04-21T07:01:19;10.60;99.90
20722;DHT22;10522;52.198;9.890;2023-04-21T07:03:45;10.70;99.90
20722;DHT22;10522;52.198;9.890;2023-04-21T07:06:11;10.80;99.90
20722;DHT22;10522;52.198;9.890;2023-04-21T07:08:37;10.80;99.90
20722;DHT22;10522;52.198;9.890;2023-04-21T07:11:03;11.00;99.90
20722;DHT22;10522;52.198;9.890;2023-04-21T07:13:28;11.30;99.90
20722;DHT22;10522;52.198;9.890;2023-04-21T07:15:54;11.40;99.90
20722;DHT22;10522;52.198;9.890;2023-04-21T07:18:20;11.70;99.90
20722;DHT22;10522;52.198;9.890;2023-04-21T07:20:45;11.70;99.90
20722;DHT22;10522;52.198;9.890;2023-04-21T07:23:11;12.00;99.90
20722;DHT22;10522;52.198;9.890;2023-04-21T07:25:37;12.00;99.90
20722;DHT22;10522;52.198;9.890;2023-04-21T07:28:03;11.90;99.90
20722;DHT22;10522;52.198;9.890;2023-04-21T07:30:29;11.90;99.90
20722;DHT22;10522;52.198;9.890;2023-04-21T07:32:55;12.10;99.90
20722;DHT22;10522;52.198;9.890;2023-04-21T07:35:20;12.10;99.90
20722;DHT22;10522;52.198;9.890;2023-04-21T07:37:46;12.30;99.90
20722;DHT22;10522;52.198;9.890;2023-04-21T07:40:12;12.50;99.90
20722;DHT22;10522;52.198;9.890;2023-04-21T07:42:38;12.40;99.90
20722;DHT22;10522;52.198;9.890;2023-04-21T07:45:04;12.70;99.90
20722;DHT22;10522;52.198;9.890;2023-04-21T07:47:30;12.70;99.90
20722;DHT22;10522;52.198;9.890;2023-04-21T07:49:56;12.80;99.90
20722;DHT22;10522;52.198;9.890;2023-04-21T07:52:22;12.80;99.90
20722;DHT22;10522;52.198;9.890;2023-04-21T07:54:48;12.90;99.90
20722;DHT22;10522;52.198;9.890;2023-04-21T07:57:14;13.20;99.90
20722;DHT22;10522;52.198;9.890;2023-04-21T07:59:39;13.10;99.90
20722;DHT22;10522;52.198;9.890;2023-04-21T08:02:05;13.10;99.90
20722;DHT22;10522;52.198;9.890;2023-04-21T08:04:31;13.10;99.90
20722;DHT22;10522;52.198;9.890;2023-04-21T08:06:56;13.40;99.90
20722;DHT22;10522;52.198;9.890;2023-04-21T08:09:22;13.50;99.90
20722;DHT22;10522;52.198;9.890;2023-04-21T08:11:47;13.70;99.90
20722;DHT22;10522;52.198;9.890;2023-04-21T08:14:13;13.60;99.90
20722;DHT22;10522;52.198;9.890;2023-04-21T08:16:39;13.70;99.90
20722;DHT22;10522;52.198;9.890;2023-04-21T08:19:07;13.80;99.90
20722;DHT22;10522;52.198;9.890;2023-04-21T08:21:33;13.90;99.90
20722;DHT22;10522;52.198;9.890;2023-04-21T08:23:59;14.10;99.90
20722;DHT22;10522;52.198;9.890;2023-04-21T08:26:25;14.20;99.90
20722;DHT22;10522;52.198;9.890;2023-04-21T08:28:51;14.20;99.90
20722;DHT22;10522;52.198;9.890;2023-04-21T08:31:17;14.40;99.90
20722;DHT22;10522;52.198;9.890;2023-04-21T08:33:44;14.40;99.90
20722;DHT22;10522;52.198;9.890;2023-04-21T08:36:09;14.50;99.90
20722;DHT22;10522;52.198;9.890;2023-04-21T08:38:36;14.70;99.90
20722;DHT22;10522;52.198;9.890;2023-04-21T08:41:03;14.80;99.90
20722;DHT22;10522;52.198;9.890;2023-04-21T08:43:29;15.00;99.90
20722;DHT22;10522;52.198;9.890;2023-04-21T08:45:55;15.00;99.90
20722;DHT22;10522;52.198;9.890;2023-04-21T08:48:21;15.00;99.90
20722;DHT22;10522;52.198;9.890;2023-04-21T08:50:49;15.00;99.90
20722;DHT22;10522;52.198;9.890;2023-04-21T08:53:18;15.10;99.90
20722;DHT22;10522;52.198;9.890;2023-04-21T08:55:44;15.20;99.90
20722;DHT22;10522;52.198;9.890;2023-04-21T08:58:10;15.30;99.90
20722;DHT22;10522;52.198;9.890;2023-04-21T09:00:36;15.50;99.90
20722;DHT22;10522;52.198;9.890;2023-04-21T09:03:02;15.80;99.90
20722;DHT22;10522;52.198;9.890;2023-04-21T09:05:31;15.80;99.90
20722;DHT22;10522;52.198;9.890;2023-04-21T09:08:11;15.60;99.90
20722;DHT22;10522;52.198;9.890;2023-04-21T09:10:50;15.70;99.90
20722;DHT22;10522;52.198;9.890;2023-04-21T09:13:17;15.70;99.90
20722;DHT22;10522;52.198;9.890;2023-04-21T09:15:48;16.00;99.90
20722;DHT22;10522;52.198;9.890;2023-04-21T09:18:17;16.10;99.90
20722;DHT22;10522;52.198;9.890;2023-04-21T09:20:44;16.40;99.90
20722;DHT22;10522;52.198;9.890;2023-04-21T09:23:11;16.50;99.90
20722;DHT22;10522;52.198;9.890;2023-04-21T09:25:44;16.30;99.90
20722;DHT22;10522;52.198;9.890;2023-04-21T09:28:11;16.40;99.90
20722;DHT22;10522;52.198;9.890;2023-04-21T09:30:41;16.50;99.90
20722;DHT22;10522;52.198;9.890;2023-04-21T09:33:13;16.70;99.90
20722;DHT22;10522;52.198;9.890;2023-04-21T09:35:39;16.60;99.90
20722;DHT22;10522;52.198;9.890;2023-04-21T09:38:10;16.80;99.90
20722;DHT22;10522;52.198;9.890;2023-04-21T09:40:36;17.00;99.90
20722;DHT22;10522;52.198;9.890;2023-04-21T09:43:06;17.20;99.90
20722;DHT22;10522;52.198;9.890;2023-04-21T09:45:33;17.10;99.90
20722;DHT22;10522;52.198;9.890;2023-04-21T09:47:59;17.10;99.90
20722;DHT22;10522;52.198;9.890;2023-04-21T09:50:28;17.10;99.90
20722;DHT22;10522;52.198;9.890;2023-04-21T09:52:55;17.30;99.90
20722;DHT22;10522;52.198;9.890;2023-04-21T09:55:27;17.50;99.90
20722;DHT22;10522;52.198;9.890;2023-04-21T09:57:57;17.50;99.90
20722;DHT22;10522;52.198;9.890;2023-04-21T10:00:26;17.60;99.90
20722;DHT22;10522;52.198;9.890;2023-04-21T10:02:57;17.70;99.90
20722;DHT22;10522;52.198;9.890;2023-04-21T10:05:22;17.70;99.90
20722;DHT22;10522;52.198;9.890;2023-04-21T10:07:48;17.70;99.90
20722;DHT22;10522;52.198;9.890;2023-04-21T10:10:26;17.90;99.90
20722;DHT22;10522;52.198;9.890;2023-04-21T10:12:52;17.90;99.90
20722;DHT22;10522;52.198;9.890;2023-04-21T10:15:46;17.90;99.90
20722;DHT22;10522;52.198;9.890;2023-04-21T10:18:19;18.00;99.90
20722;DHT22;10522;52.198;9.890;2023-04-21T10:21:10;18.00;99.90
20722;DHT22;10522;52.198;9.890;2023-04-21T10:23:42;18.40;99.90
20722;DHT22;10522;52.198;9.890;2023-04-21T10:26:24;18.50;99.90
20722;DHT22;10522;52.198;9.890;2023-04-21T10:29:07;18.50;99.90
20722;DHT22;10522;52.198;9.890;2023-04-21T10:31:50;18.50;99.90
20722;DHT22;10522;52.198;9.890;2023-04-21T10:34:18;18.70;99.90
20722;DHT22;10522;52.198;9.890;2023-04-21T10:39:10;18.80;99.90
20722;DHT22;10522;52.198;9.890;2023-04-21T10:41:42;19.00;99.90
20722;DHT22;10522;52.198;9.890;2023-04-21T10:46:51;19.00;99.90
20722;DHT22;10522;52.198;9.890;2023-04-21T10:49:26;19.10;99.90
20722;DHT22;10522;52.198;9.890;2023-04-21T10:52:32;19.10;99.90
20722;DHT22;10522;52.198;9.890;2023-04-21T10:57:23;19.10;99.90
20722;DHT22;10522;52.198;9.890;2023-04-21T10:59:49;19.30;99.90
20722;DHT22;10522;52.198;9.890;2023-04-21T11:02:16;19.30;99.90
20722;DHT22;10522;52.198;9.890;2023-04-21T11:04:43;19.30;99.90
20722;DHT22;10522;52.198;9.890;2023-04-21T11:07:16;19.10;99.90
20722;DHT22;10522;52.198;9.890;2023-04-21T11:09:43;19.30;99.90
20722;DHT22;10522;52.198;9.890;2023-04-21T11:12:12;19.40;99.90
20722;DHT22;10522;52.198;9.890;2023-04-21T11:14:40;19.40;99.90
20722;DHT22;10522;52.198;9.890;2023-04-21T11:17:11;19.70;99.90
20722;DHT22;10522;52.198;9.890;2023-04-21T11:19:37;19.50;99.90
20722;DHT22;10522;52.198;9.890;2023-04-21T11:22:04;19.60;99.90
20722;DHT22;10522;52.198;9.890;2023-04-21T11:24:30;19.50;99.90
20722;DHT22;10522;52.198;9.890;2023-04-21T11:26:56;19.60;99.90
20722;DHT22;10522;52.198;9.890;2023-04-21T11:29:22;19.70;99.90
20722;DHT22;10522;52.198;9.890;2023-04-21T11:31:48;19.80;99.90
20722;DHT22;10522;52.198;9.890;2023-04-21T11:34:15;19.80;99.90
20722;DHT22;10522;52.198;9.890;2023-04-21T11:36:45;19.90;99.90
20722;DHT22;10522;52.198;9.890;2023-04-21T11:39:12;20.10;99.90
20722;DHT22;10522;52.198;9.890;2023-04-21T11:41:47;20.10;99.90
20722;DHT22;10522;52.198;9.890;2023-04-21T11:44:29;20.20;99.90
20722;DHT22;10522;52.198;9.890;2023-04-21T11:46:54;20.30;99.90
20722;DHT22;10522;52.198;9.890;2023-04-21T11:49:24;20.20;99.90
20722;DHT22;10522;52.198;9.890;2023-04-21T11:51:50;20.30;99.90
20722;DHT22;10522;52.198;9.890;2023-04-21T11:54:18;20.20;99.90
20722;DHT22;10522;52.198;9.890;2023-04-21T11:56:47;20.00;99.90
20722;DHT22;10522;52.198;9.890;2023-04-21T11:59:14;20.00;99.90
20722;DHT22;10522;52.198;9.890;2023-04-21T12:01:48;20.20;99.90
20722;DHT22;10522;52.198;9.890;2023-04-21T12:04:24;20.10;99.90
20722;DHT22;10522;52.198;9.890;2023-04-21T12:07:02;20.40;99.90
20722;DHT22;10522;52.198;9.890;2023-04-21T12:09:28;20.40;99.90
20722;DHT22;10522;52.198;9.890;2023-04-21T12:11:56;20.40;99.90
20722;DHT22;10522;52.198;9.890;2023-04-21T12:14:24;20.70;99.90
20722;DHT22;10522;52.198;9.890;2023-04-21T12:16:53;20.70;99.90
20722;DHT22;10522;52.198;9.890;2023-04-21T12:19:35;20.80;99.90
20722;DHT22;10522;52.198;9.890;2023-04-21T12:22:08;20.80;99.90
20722;DHT22;10522;52.198;9.890;2023-04-21T12:24:34;20.80;99.90
20722;DHT22;10522;52.198;9.890;2023-04-21T12:27:00;20.70;99.90
20722;DHT22;10522;52.198;9.890;2023-04-21T12:29:27;20.80;99.90
20722;DHT22;10522;52.198;9.890;2023-04-21T12:31:52;20.60;99.90
20722;DHT22;10522;52.198;9.890;2023-04-21T12:34:18;20.80;99.90
20722;DHT22;10522;52.198;9.890;2023-04-21T12:36:44;20.80;99.90
20722;DHT22;10522;52.198;9.890;2023-04-21T12:39:09;20.70;99.90
20722;DHT22;10522;52.198;9.890;2023-04-21T12:41:35;20.70;99.90
20722;DHT22;10522;52.198;9.890;2023-04-21T12:44:00;21.00;99.90
20722;DHT22;10522;52.198;9.890;2023-04-21T12:46:27;21.20;99.90
20722;DHT22;10522;52.198;9.890;2023-04-21T12:48:52;21.00;99.90
20722;DHT22;10522;52.198;9.890;2023-04-21T12:51:18;21.40;99.90
20722;DHT22;10522;52.198;9.890;2023-04-21T12:53:43;21.40;99.90
20722;DHT22;10522;52.198;9.890;2023-04-21T12:56:10;21.20;99.90
20722;DHT22;10522;52.198;9.890;2023-04-21T12:58:36;21.30;99.90
20722;DHT22;10522;52.198;9.890;2023-04-21T13:01:01;21.10;99.90
20722;DHT22;10522;52.198;9.890;2023-04-21T13:03:27;21.20;99.90
20722;DHT22;10522;52.198;9.890;2023-04-21T13:05:52;21.10;99.90
20722;DHT22;10522;52.198;9.890;2023-04-21T13:08:19;21.00;99.90
20722;DHT22;10522;52.198;9.890;2023-04-21T13:10:45;20.90;99.90
20722;DHT22;10522;52.198;9.890;2023-04-21T13:13:11;20.70;99.90
20722;DHT22;10522;52.198;9.890;2023-04-21T13:15:36;20.90;99.90
20722;DHT22;10522;52.198;9.890;2023-04-21T13:18:02;21.10;99.90
20722;DHT22;10522;52.198;9.890;2023-04-21T13:20:27;21.00;99.90
20722;DHT22;10522;52.198;9.890;2023-04-21T13:22:53;21.00;99.90
20722;DHT22;10522;52.198;9.890;2023-04-21T13:25:18;20.90;99.90
20722;DHT22;10522;52.198;9.890;2023-04-21T13:27:44;21.00;99.90
20722;DHT22;10522;52.198;9.890;2023-04-21T13:30:12;21.00;99.90
20722;DHT22;10522;52.198;9.890;2023-04-21T13:32:38;21.20;99.90
20722;DHT22;10522;52.198;9.890;2023-04-21T13:35:05;21.20;99.90
20722;DHT22;10522;52.198;9.890;2023-04-21T13:37:38;21.30;99.90
20722;DHT22;10522;52.198;9.890;2023-04-21T13:40:05;21.40;99.90
20722;DHT22;10522;52.198;9.890;2023-04-21T13:42:33;21.10;99.90
20722;DHT22;10522;52.198;9.890;2023-04-21T13:44:59;21.20;99.90
20722;DHT22;10522;52.198;9.890;2023-04-21T13:47:27;21.40;99.90
20722;DHT22;10522;52.198;9.890;2023-04-21T13:49:53;21.50;99.90
20722;DHT22;10522;52.198;9.890;2023-04-21T13:52:18;21.50;99.90
20722;DHT22;10522;52.198;9.890;2023-04-21T13:54:44;21.50;99.90
20722;DHT22;10522;52.198;9.890;2023-04-21T13:57:10;21.60;99.90
20722;DHT22;10522;52.198;9.890;2023-04-21T13:59:35;21.70;99.90
20722;DHT22;10522;52.198;9.890;2023-04-21T14:02:01;21.50;99.90
20722;DHT22;10522;52.198;9.890;2023-04-21T14:04:27;21.50;99.90
20722;DHT22;10522;52.198;9.890;2023-04-21T14:06:52;21.60;99.90
20722;DHT22;10522;52.198;9.890;2023-04-21T14:09:18;21.50;99.90
20722;DHT22;10522;52.198;9.890;2023-04-21T14:11:43;21.40;99.90
20722;DHT22;10522;52.198;9.890;2023-04-21T14:14:09;21.40;99.90
20722;DHT22;10522;52.198;9.890;2023-04-21T14:16:34;21.40;99.90
20722;DHT22;10522;52.198;9.890;2023-04-21T14:19:00;21.30;99.90
20722;DHT22;10522;52.198;9.890;2023-04-21T14:21:26;21.50;99.90
20722;DHT22;10522;52.198;9.890;2023-04-21T14:23:51;21.60;99.90
20722;DHT22;10522;52.198;9.890;2023-04-21T14:26:17;21.50;99.90
20722;DHT22;10522;52.198;9.890;2023-04-21T14:28:42;21.80;99.90
20722;DHT22;10522;52.198;9.890;2023-04-21T14:31:09;21.50;99.90
20722;DHT22;10522;52.198;9.890;2023-04-21T14:33:34;22.00;99.90
20722;DHT22;10522;52.198;9.890;2023-04-21T14:36:00;21.80;99.90
20722;DHT22;10522;52.198;9.890;2023-04-21T14:38:25;21.60;99.90
20722;DHT22;10522;52.198;9.890;2023-04-21T14:40:51;21.60;99.90
20722;DHT22;10522;52.198;9.890;2023-04-21T14:43:20;21.30;99.90
20722;DHT22;10522;52.198;9.890;2023-04-21T14:45:49;21.70;99.90
20722;DHT22;10522;52.198;9.890;2023-04-21T14:48:14;21.80;99.90
20722;DHT22;10522;52.198;9.890;2023-04-21T14:50:40;22.20;99.90
20722;DHT22;10522;52.198;9.890;2023-04-21T14:53:06;22.40;99.90
20722;DHT22;10522;52.198;9.890;2023-04-21T14:55:32;22.20;99.90
20722;DHT22;10522;52.198;9.890;2023-04-21T14:57:58;22.30;99.90
20722;DHT22;10522;52.198;9.890;2023-04-21T15:00:24;22.40;99.90
20722;DHT22;10522;52.198;9.890;2023-04-21T15:02:50;22.50;99.90
20722;DHT22;10522;52.198;9.890;2023-04-21T15:05:17;22.90;99.90
20722;DHT22;10522;52.198;9.890;2023-04-21T15:07:43;22.80;99.90
20722;DHT22;10522;52.198;9.890;2023-04-21T15:10:11;22.90;99.90
20722;DHT22;10522;52.198;9.890;2023-04-21T15:12:37;23.00;99.90
20722;DHT22;10522;52.198;9.890;2023-04-21T15:15:07;23.00;99.90
20722;DHT22;10522;52.198;9.890;2023-04-21T15:17:33;23.10;99.90
20722;DHT22;10522;52.198;9.890;2023-04-21T15:20:11;22.90;99.90
20722;DHT22;10522;52.198;9.890;2023-04-21T15:22:37;23.10;99.90
20722;DHT22;10522;52.198;9.890;2023-04-21T15:25:04;23.40;99.90
20722;DHT22;10522;52.198;9.890;2023-04-21T15:27:32;23.30;99.90
20722;DHT22;10522;52.198;9.890;2023-04-21T15:29:58;23.80;99.90
20722;DHT22;10522;52.198;9.890;2023-04-21T15:32:24;24.00;99.90
20722;DHT22;10522;52.198;9.890;2023-04-21T15:34:50;23.50;99.90
20722;DHT22;10522;52.198;9.890;2023-04-21T15:37:17;23.50;99.90
20722;DHT22;10522;52.198;9.890;2023-04-21T15:39:44;23.50;99.90
20722;DHT22;10522;52.198;9.890;2023-04-21T15:42:10;24.20;99.90
20722;DHT22;10522;52.198;9.890;2023-04-21T15:44:39;24.40;99.90